createdAt,value
2022-08-29T00:00:47.314Z,67233.59
2022-08-29T00:05:51.193Z,67359.94
2022-08-29T00:10:56.846Z,67328.13
2022-08-29T00:16:00.587Z,67362.28
2022-08-29T00:21:06.282Z,67303.22
2022-08-29T00:26:11.201Z,67382.81
2022-08-29T00:31:14.924Z,67372.41
2022-08-29T00:36:19.075Z,67324.91
2022-08-29T00:41:27.579Z,67281.75
2022-08-29T00:46:46.330Z,67337.28
2022-08-29T00:51:50.289Z,67396.78
2022-08-29T00:56:56.318Z,67317.88
2022-08-29T01:02:00.609Z,67302.34
2022-08-29T01:07:05.694Z,67305.44
2022-08-29T01:12:17.927Z,67333.63
2022-08-29T01:17:24.880Z,67394.63
2022-08-29T01:22:42.510Z,67375.28
2022-08-29T01:27:53.963Z,67316.25
2022-08-29T01:33:00.923Z,67259.56
2022-08-29T01:38:04.717Z,67351.94
2022-08-29T01:43:09.780Z,67225.56
2022-08-29T01:48:13.465Z,67299.63
2022-08-29T01:53:18.458Z,67399.00
2022-08-29T01:58:23.606Z,67457.84
2022-08-29T02:03:27.585Z,67487.72
2022-08-29T02:08:31.526Z,67450.38
2022-08-29T02:13:36.692Z,67337.41
2022-08-29T02:18:42.510Z,67308.81
2022-08-29T02:23:46.751Z,67260.75
2022-08-29T02:28:51.984Z,67239.63
2022-08-29T02:33:56.296Z,67233.59
2022-08-29T02:39:00.399Z,67250.44
2022-08-29T02:44:06.150Z,67244.47
2022-08-29T02:49:09.897Z,67306.53
2022-08-29T02:54:13.874Z,67300.19
2022-08-29T02:59:18.999Z,67300.03
2022-08-29T03:04:22.811Z,67314.03
2022-08-29T03:09:27.006Z,67282.78
2022-08-29T03:14:32.201Z,67289.31
2022-08-29T03:19:37.426Z,67239.09
2022-08-29T03:24:41.311Z,67302.75
2022-08-29T03:29:46.434Z,67334.13
2022-08-29T03:34:50.344Z,67338.38
2022-08-29T03:39:54.638Z,67278.03
2022-08-29T03:44:59.832Z,67287.56
2022-08-29T03:50:03.713Z,67300.03
2022-08-29T03:55:08.625Z,67244.56
2022-08-29T04:00:17.229Z,67262.31
2022-08-29T04:05:22.031Z,67270.47
2022-08-29T04:10:29.031Z,67282.78
2022-08-29T04:15:34.797Z,67292.00
2022-08-29T04:20:44.959Z,67265.00
2022-08-29T04:25:48.812Z,67283.38
2022-08-29T04:30:55.118Z,67260.09
2022-08-29T04:35:58.983Z,67265.00
2022-08-29T04:41:07.040Z,67295.88
2022-08-29T04:46:23.535Z,67335.38
2022-08-29T04:51:28.639Z,67389.34
2022-08-29T04:56:32.427Z,67431.91
2022-08-29T05:01:37.534Z,67334.13
2022-08-29T05:06:42.102Z,67403.28
2022-08-29T05:11:45.944Z,67479.00
2022-08-29T05:16:50.956Z,67442.22
2022-08-29T05:21:58.011Z,67406.00
2022-08-29T05:27:01.901Z,67496.41
2022-08-29T05:32:07.200Z,67485.47
2022-08-29T05:37:14.800Z,67502.88
2022-08-29T05:42:22.081Z,67454.66
2022-08-29T05:47:28.089Z,67524.44
2022-08-29T05:52:32.219Z,67421.81
2022-08-29T05:57:36.033Z,67413.22
2022-08-29T06:02:41.595Z,67366.66
2022-08-29T06:07:45.934Z,67437.28
2022-08-29T06:12:49.698Z,67411.94
2022-08-29T06:17:54.842Z,67396.84
2022-08-29T06:22:58.782Z,67383.81
2022-08-29T06:28:02.825Z,67307.66
2022-08-29T06:33:10.838Z,67338.44
2022-08-29T06:38:16.207Z,67313.63
2022-08-29T06:43:24.233Z,67262.97
2022-08-29T06:48:45.395Z,67240.03
2022-08-29T06:53:52.543Z,67293.16
2022-08-29T06:58:56.458Z,67255.75
2022-08-29T07:04:02.427Z,67261.72
2022-08-29T07:09:07.547Z,67292.50
2022-08-29T07:14:13.328Z,67335.84
2022-08-29T07:19:18.435Z,67327.13
2022-08-29T07:24:24.970Z,67293.09
2022-08-29T07:29:35.673Z,67358.00
2022-08-29T07:34:43.616Z,67450.88
2022-08-29T07:39:47.484Z,67440.06
2022-08-29T07:44:51.125Z,67428.75
2022-08-29T07:49:56.860Z,67323.88
2022-08-29T07:55:01.186Z,67337.34
2022-08-29T08:00:07.843Z,67289.31
2022-08-29T08:05:17.701Z,67305.56
2022-08-29T08:10:21.521Z,67291.47
2022-08-29T08:15:25.243Z,67322.22
2022-08-29T08:20:30.340Z,67325.50
2022-08-29T08:25:34.316Z,67312.59
2022-08-29T08:30:38.220Z,67314.63
2022-08-29T08:35:46.794Z,67400.63
2022-08-29T08:41:02.258Z,67322.94
2022-08-29T08:46:06.127Z,67404.97
2022-08-29T08:51:19.333Z,67387.66
2022-08-29T08:56:33.239Z,67443.97
2022-08-29T09:01:43.370Z,67441.75
2022-08-29T09:12:10.352Z,67597.06
2022-08-29T09:17:26.445Z,67522.88
2022-08-29T09:22:33.241Z,67419.09
2022-08-29T09:27:38.441Z,67408.16
2022-08-29T09:32:58.546Z,67443.44
2022-08-29T09:38:06.524Z,67533.69
2022-08-29T09:43:17.159Z,67624.16
2022-08-29T09:48:22.373Z,67671.78
2022-08-29T09:53:27.521Z,67673.34
2022-08-29T09:58:39.784Z,67630.09
2022-08-29T10:03:52.918Z,67594.31
2022-08-29T10:09:02.634Z,67471.41
2022-08-29T10:14:12.584Z,67427.69
2022-08-29T10:19:21.560Z,67447.06
2022-08-29T10:24:55.607Z,67584.63
2022-08-29T10:30:11.257Z,67615.97
2022-08-29T10:35:20.011Z,67534.84
2022-08-29T10:40:43.384Z,67518.06
2022-08-29T10:46:02.488Z,67550.94
2022-08-29T10:51:18.061Z,67628.41
2022-08-29T10:56:28.661Z,67662.59
2022-08-29T11:01:36.937Z,67682.63
2022-08-29T11:06:54.441Z,67801.28
2022-08-29T11:12:09.184Z,67814.72
2022-08-29T11:17:16.405Z,67725.47
2022-08-29T11:22:25.313Z,67660.34
2022-08-29T11:27:42.821Z,67722.22
2022-08-29T11:33:19.206Z,67834.38
2022-08-29T11:38:51.320Z,67933.56
2022-08-29T11:44:05.622Z,67953.09
2022-08-29T11:49:36.570Z,67987.28
2022-08-29T11:55:11.891Z,68049.16
2022-08-29T12:00:46.508Z,67916.19
2022-08-29T12:06:02.553Z,68025.22
2022-08-29T12:11:07.758Z,68066.50
2022-08-29T12:16:17.301Z,67913.50
2022-08-29T12:21:47.761Z,67982.91
2022-08-29T12:26:57.530Z,67922.13
2022-08-29T12:32:22.575Z,67779.59
2022-08-29T12:37:38.710Z,67833.66
2022-08-29T12:42:49.348Z,67932.97
2022-08-29T12:48:21.754Z,67995.94
2022-08-29T12:53:36.919Z,68115.44
2022-08-29T12:58:41.999Z,68262.59
2022-08-29T13:03:58.406Z,68324.50
2022-08-29T13:09:02.382Z,68212.09
2022-08-29T13:14:12.310Z,68119.72
2022-08-29T13:19:21.662Z,68232.13
2022-08-29T13:24:25.459Z,68196.31
2022-08-29T13:35:02.488Z,67955.16
2022-08-29T13:40:36.730Z,67835.44
2022-08-29T13:45:40.823Z,68004.63
2022-08-29T13:55:54.826Z,68151.31
2022-08-29T14:00:59.639Z,68307.16
2022-08-29T14:06:04.763Z,68274.50
2022-08-29T14:11:11.326Z,68238.16
2022-08-29T14:16:15.716Z,68002.50
2022-08-29T14:21:21.017Z,67992.69
2022-08-29T14:26:25.630Z,68269.19
2022-08-29T14:31:29.462Z,68359.91
2022-08-29T14:36:43.478Z,68201.19
2022-08-29T14:41:52.012Z,67943.81
2022-08-29T14:46:56.288Z,68051.38
2022-08-29T14:52:01.439Z,68156.69
2022-08-29T14:57:05.605Z,68269.69
2022-08-29T15:02:09.994Z,68306.72
2022-08-29T15:07:15.596Z,68159.97
2022-08-29T15:12:20.504Z,68065.44
2022-08-29T15:17:25.235Z,67989.97
2022-08-29T15:22:30.332Z,68005.72
2022-08-29T15:27:34.119Z,67978.00
2022-08-29T15:32:39.209Z,67908.09
2022-08-29T15:37:44.477Z,68019.28
2022-08-29T15:42:48.279Z,67936.81
2022-08-29T15:47:53.885Z,67840.84
2022-08-29T15:52:59.155Z,67820.25
2022-08-29T15:58:02.670Z,68084.97
2022-08-29T16:03:07.920Z,68268.56
2022-08-29T16:08:16.566Z,68174.53
2022-08-29T16:13:22.496Z,68095.25
2022-08-29T16:18:26.209Z,67993.78
2022-08-29T16:23:31.330Z,67960.75
2022-08-29T16:28:35.708Z,67912.91
2022-08-29T16:33:39.852Z,67867.94
2022-08-29T16:38:45.176Z,67785.56
2022-08-29T16:43:51.906Z,67770.97
2022-08-29T16:48:56.130Z,67811.03
2022-08-29T16:54:01.612Z,67760.09
2022-08-29T16:59:05.356Z,67696.22
2022-08-29T17:04:12.423Z,67682.63
2022-08-29T17:09:20.000Z,67540.84
2022-08-29T17:14:24.954Z,67464.50
2022-08-29T17:19:29.079Z,67463.84
2022-08-29T17:24:38.457Z,67452.06
2022-08-29T17:29:43.131Z,67427.63
2022-08-29T17:34:48.071Z,67387.06
2022-08-29T17:39:53.281Z,67458.50
2022-08-29T17:44:57.878Z,67510.50
2022-08-29T17:50:01.605Z,67522.34
2022-08-29T17:55:08.491Z,67441.25
2022-08-29T18:00:13.591Z,67562.91
2022-08-29T18:05:23.538Z,67536.47
2022-08-29T18:10:48.932Z,67476.41
2022-08-29T18:15:53.792Z,67520.78
2022-08-29T18:20:58.597Z,67522.41
2022-08-29T18:26:05.619Z,67469.38
2022-08-29T18:31:09.658Z,67461.75
2022-08-29T18:36:16.166Z,67522.41
2022-08-29T18:41:21.483Z,67437.41
2022-08-29T18:46:25.289Z,67364.50
2022-08-29T18:51:29.647Z,67464.50
2022-08-29T18:56:34.863Z,67458.63
2022-08-29T19:01:38.608Z,67387.06
2022-08-29T19:06:43.364Z,67446.13
2022-08-29T19:11:48.788Z,67450.44
2022-08-29T19:16:52.614Z,67437.91
2022-08-29T19:21:56.311Z,67486.06
2022-08-29T19:27:01.615Z,67487.28
2022-08-29T19:32:07.360Z,67412.06
2022-08-29T19:37:11.589Z,67448.81
2022-08-29T19:42:16.948Z,67351.53
2022-08-29T19:47:20.650Z,67331.00
2022-08-29T19:52:24.404Z,67327.69
2022-08-29T19:57:29.961Z,67380.63
2022-08-29T20:02:33.736Z,67337.34
2022-08-29T20:07:39.517Z,67341.84
2022-08-29T20:12:44.925Z,67320.09
2022-08-29T20:17:49.911Z,67314.16
2022-08-29T20:22:54.482Z,67322.25
2022-08-29T20:28:01.280Z,67307.75
2022-08-29T20:33:05.449Z,67300.66
2022-08-29T20:38:10.723Z,67262.91
2022-08-29T20:43:16.186Z,67297.00
2022-08-29T20:48:22.921Z,67254.75
2022-08-29T20:53:32.404Z,67107.34
2022-08-29T20:58:37.950Z,67155.41
2022-08-29T21:03:58.888Z,67185.47
2022-08-29T21:09:02.627Z,67214.84
2022-08-29T21:14:07.736Z,67183.00
2022-08-29T21:19:12.765Z,67178.59
2022-08-29T21:24:16.554Z,67055.09
2022-08-29T21:29:22.026Z,67025.44
2022-08-29T21:34:26.208Z,66962.28
2022-08-29T21:39:30.534Z,66910.53
2022-08-29T21:44:36.346Z,66957.50
2022-08-29T21:49:40.119Z,66929.88
2022-08-29T21:54:43.879Z,66873.28
2022-08-29T21:59:49.270Z,66803.34
2022-08-29T22:04:53.217Z,66777.06
2022-08-29T22:09:57.067Z,66828.22
2022-08-29T22:15:19.538Z,66907.38
2022-08-29T22:20:23.369Z,66881.06
2022-08-29T22:25:27.022Z,66927.25
2022-08-29T22:30:32.834Z,66983.38
2022-08-29T22:35:37.454Z,67002.09
2022-08-29T22:40:41.411Z,67004.31
2022-08-29T22:45:46.751Z,67005.88
2022-08-29T22:50:53.964Z,67025.34
2022-08-29T22:56:02.448Z,66971.50
2022-08-29T23:01:08.144Z,67013.50
2022-08-29T23:06:11.824Z,67010.41
2022-08-29T23:11:16.369Z,67042.63
2022-08-29T23:16:21.958Z,66983.25
2022-08-29T23:21:25.901Z,66867.50
2022-08-29T23:26:30.084Z,66952.13
2022-08-29T23:31:35.217Z,66842.69
2022-08-29T23:36:39.090Z,66924.56
2022-08-29T23:41:44.687Z,66869.59
2022-08-29T23:46:49.891Z,66877.69
2022-08-29T23:51:53.749Z,66894.38
2022-08-29T23:56:57.530Z,66912.22
